Upload

Loading...

TUIfly X3 5130 go around RWY 32 Rijeka 24OCT09

32,011

Loading...

Loading...

Loading...

Rating is available when the video has been rented.
This feature is not available right now. Please try again later.
Uploaded on Oct 25, 2009

TUIfly X3 5130 from Cologne (CGN) go around RWY 32 Rijeka (RJK) due to crosswind at around 0830 local time (0630Z) 24OCT09 . After this attempt we divert to Pula (PUY)

METAR LDRI 240600Z 09020G30KT 010V160 9999 SCT037 16/10 Q1007
METAR LDRI 240630Z 06020G45KT 330V140 9999 SCT037 16/10 Q1007
METAR LDRI 240700Z 07015G29KT 010V150 9999 SCT037 16/10 Q1008

Aircraft: Boeing 737-700 D-AHXG

Loading...

When autoplay is enabled, a suggested video will automatically play next.

Up Next


Sign in to add this to Watch Later

Add to